Ana Sayfa
METAR-TAF:

METAR-TAF

Havaalanları :

Clayton Lake, Maine, Amerika Birleşik Devletleri

Enlem: 46-37N, Boylam: 069-32W, yükseklik: 314 m

Güncel hava durumu gözlemi

Rapor saat 17:16 UTC de 21 dakika önce yapıldı.
Rüzgar değişken yönden 6 kt ve 17 kt'a kadar ani rüzgarlar
Sıcaklık 24°C
Nem 54%
Basınç 1007 hPa

METAR: K40B 131716Z AUTO VRB06G17KT 24/14 A2974 RMK AO1 SLP064 T02450142 52002

Saat: 13:37 (17:37 UTC)


TAF: eksik

4.000'den fazla havaalanı için hava durumu gözlemleri ve tahminleri (METAR ve TAF raporları).

Kullanılabilir istasyonlar harita üzerinde sarı ve kırmızı noktalarla gösterilir.

İstasyonun adını görmek için fareyi noktanın üzerinde gezdirin.

Sonrasında hava gözlem ve tahminlerini görmek için tıklayın.

Haritayı değiştirmek için: yaklaştırmak için siyah artı işaretli yeşil düğmeye ve uzaklaştırmak için de eksi işaretli düğmeye hızla tıklayın; bitişik haritalar için yeşil okları kullanın.


METAR-TAF: